Terminal Aerodrome Forecast
Issued by NWS Charleston, WV

Current Version | Previous Version | Graphics & Text | Print | Product List | Glossary On
Versions: 1 2 3 4 5 6 7 8 9 10 11 12 13 14 15 16 17 18 19 20 21 22 23 24 25
000
FTUS41 KRLX 220904 AAA
TAFEKN
TAF AMD
KEKN 220904Z 2209/2306 29004KT 2SM BR BKN035
     FM221200 28008KT 5SM BR SCT035
     FM221300 28009KT P6SM SCT200
     FM222000 27013G19KT P6SM BKN040
     FM230000 32008KT P6SM SCT030
     FM230300 35007KT P6SM SCT030=

USA.gov is the U.S. government's official web portal to all federal, state and local government web resources and services.